sensor_id;sensor_type;location;lat;lon;timestamp;pressure;altitude;pressure_sealevel;temperature;humidity
54850;BME280;47660;51.334;12.396;2024-01-25T00:02:19;100702.81;;;18.39;38.98
54850;BME280;47660;51.334;12.396;2024-01-25T00:04:44;100709.47;;;19.24;37.39
54850;BME280;47660;51.334;12.396;2024-01-25T00:07:09;100684.97;;;19.55;37.03
54850;BME280;47660;51.334;12.396;2024-01-25T00:09:35;100689.19;;;19.20;37.43
54850;BME280;47660;51.334;12.396;2024-01-25T00:12:00;100687.41;;;19.38;37.01
54850;BME280;47660;51.334;12.396;2024-01-25T00:14:25;100687.47;;;19.28;37.47
54850;BME280;47660;51.334;12.396;2024-01-25T00:16:51;100693.25;;;19.34;37.15
54850;BME280;47660;51.334;12.396;2024-01-25T00:19:17;100699.69;;;19.23;37.40
54850;BME280;47660;51.334;12.396;2024-01-25T00:21:45;100707.06;;;19.58;37.64
54850;BME280;47660;51.334;12.396;2024-01-25T00:24:12;100693.94;;;19.45;37.79
54850;BME280;47660;51.334;12.396;2024-01-25T00:26:37;100699.69;;;19.13;37.74
54850;BME280;47660;51.334;12.396;2024-01-25T00:29:03;100688.69;;;18.96;38.00
54850;BME280;47660;51.334;12.396;2024-01-25T00:31:28;100708.94;;;19.00;37.81
54850;BME280;47660;51.334;12.396;2024-01-25T00:33:53;100700.53;;;19.61;36.96
54850;BME280;47660;51.334;12.396;2024-01-25T00:36:19;100700.31;;;19.82;37.02
54850;BME280;47660;51.334;12.396;2024-01-25T00:38:45;100696.06;;;19.42;36.90
54850;BME280;47660;51.334;12.396;2024-01-25T00:41:17;100705.66;;;19.07;38.29
54850;BME280;47660;51.334;12.396;2024-01-25T00:43:43;100706.16;;;18.12;39.27
54850;BME280;47660;51.334;12.396;2024-01-25T00:46:08;100700.13;;;19.56;36.76
54850;BME280;47660;51.334;12.396;2024-01-25T00:48:34;100699.31;;;19.45;36.97
54850;BME280;47660;51.334;12.396;2024-01-25T00:51:00;100704.38;;;18.91;37.56
54850;BME280;47660;51.334;12.396;2024-01-25T00:53:25;100706.78;;;19.04;37.59
54850;BME280;47660;51.334;12.396;2024-01-25T00:55:50;100707.91;;;18.62;38.61
54850;BME280;47660;51.334;12.396;2024-01-25T00:58:16;100705.81;;;18.66;38.39
54850;BME280;47660;51.334;12.396;2024-01-25T01:00:41;100706.56;;;19.45;36.98
54850;BME280;47660;51.334;12.396;2024-01-25T01:03:07;100700.66;;;19.32;37.43
54850;BME280;47660;51.334;12.396;2024-01-25T01:05:33;100709.16;;;19.37;37.17
54850;BME280;47660;51.334;12.396;2024-01-25T01:07:59;100705.66;;;19.17;37.51
54850;BME280;47660;51.334;12.396;2024-01-25T01:10:24;100697.25;;;19.67;36.60
54850;BME280;47660;51.334;12.396;2024-01-25T01:12:49;100689.66;;;18.66;38.22
54850;BME280;47660;51.334;12.396;2024-01-25T01:15:14;100695.72;;;19.17;37.18
54850;BME280;47660;51.334;12.396;2024-01-25T01:17:40;100701.88;;;19.37;36.92
54850;BME280;47660;51.334;12.396;2024-01-25T01:20:05;100689.50;;;19.92;36.36
54850;BME280;47660;51.334;12.396;2024-01-25T01:22:31;100710.34;;;18.85;37.40
54850;BME280;47660;51.334;12.396;2024-01-25T01:24:56;100720.25;;;19.24;37.03
54850;BME280;47660;51.334;12.396;2024-01-25T01:27:22;100715.19;;;19.49;36.43
54850;BME280;47660;51.334;12.396;2024-01-25T01:29:47;100722.16;;;19.41;36.57
54850;BME280;47660;51.334;12.396;2024-01-25T01:32:12;100719.69;;;19.10;37.21
54850;BME280;47660;51.334;12.396;2024-01-25T01:34:37;100720.66;;;18.60;37.62
54850;BME280;47660;51.334;12.396;2024-01-25T01:37:03;100713.84;;;19.15;36.84
54850;BME280;47660;51.334;12.396;2024-01-25T01:39:28;100725.94;;;19.01;37.17
54850;BME280;47660;51.334;12.396;2024-01-25T01:41:53;100729.59;;;19.29;36.57
54850;BME280;47660;51.334;12.396;2024-01-25T01:44:21;100728.91;;;18.98;36.90
54850;BME280;47660;51.334;12.396;2024-01-25T01:46:47;100731.88;;;18.65;37.53
54850;BME280;47660;51.334;12.396;2024-01-25T01:49:13;100734.31;;;19.65;36.70
54850;BME280;47660;51.334;12.396;2024-01-25T01:51:40;100732.47;;;18.98;37.67
54850;BME280;47660;51.334;12.396;2024-01-25T01:54:07;100732.84;;;19.71;36.34
54850;BME280;47660;51.334;12.396;2024-01-25T01:56:33;100732.22;;;19.97;35.70
54850;BME280;47660;51.334;12.396;2024-01-25T01:59:03;100733.59;;;19.15;37.08
54850;BME280;47660;51.334;12.396;2024-01-25T02:01:29;100735.41;;;18.56;37.68
54850;BME280;47660;51.334;12.396;2024-01-25T02:03:55;100730.34;;;19.02;37.01
54850;BME280;47660;51.334;12.396;2024-01-25T02:06:21;100727.03;;;18.59;38.07
54850;BME280;47660;51.334;12.396;2024-01-25T02:08:47;100728.31;;;19.24;36.92
54850;BME280;47660;51.334;12.396;2024-01-25T02:11:13;100735.41;;;19.25;36.45
54850;BME280;47660;51.334;12.396;2024-01-25T02:13:38;100725.22;;;19.09;36.63
54850;BME280;47660;51.334;12.396;2024-01-25T02:16:05;100718.22;;;19.36;36.52
54850;BME280;47660;51.334;12.396;2024-01-25T02:18:31;100712.56;;;19.19;36.11
54850;BME280;47660;51.334;12.396;2024-01-25T02:20:56;100714.09;;;18.14;38.10
54850;BME280;47660;51.334;12.396;2024-01-25T02:23:21;100718.56;;;18.64;37.40
54850;BME280;47660;51.334;12.396;2024-01-25T02:25:47;100710.47;;;18.83;37.25
54850;BME280;47660;51.334;12.396;2024-01-25T02:28:12;100718.34;;;19.44;35.85
54850;BME280;47660;51.334;12.396;2024-01-25T02:30:37;100713.16;;;18.83;36.65
54850;BME280;47660;51.334;12.396;2024-01-25T02:33:02;100716.97;;;18.61;37.34
54850;BME280;47660;51.334;12.396;2024-01-25T02:35:28;100711.53;;;18.02;38.10
54850;BME280;47660;51.334;12.396;2024-01-25T02:37:53;100718.13;;;18.49;37.38
54850;BME280;47660;51.334;12.396;2024-01-25T02:40:18;100710.91;;;18.79;36.88
54850;BME280;47660;51.334;12.396;2024-01-25T02:42:43;100707.75;;;18.24;37.81
54850;BME280;47660;51.334;12.396;2024-01-25T02:45:09;100709.03;;;17.89;38.38
54850;BME280;47660;51.334;12.396;2024-01-25T02:47:34;100704.78;;;18.57;37.40
54850;BME280;47660;51.334;12.396;2024-01-25T02:49:59;100699.63;;;18.05;38.32
54850;BME280;47660;51.334;12.396;2024-01-25T02:52:25;100696.72;;;18.57;37.41
54850;BME280;47660;51.334;12.396;2024-01-25T02:54:50;100701.13;;;18.29;37.32
54850;BME280;47660;51.334;12.396;2024-01-25T02:57:15;100697.56;;;18.67;36.94
54850;BME280;47660;51.334;12.396;2024-01-25T02:59:41;100710.47;;;18.44;37.37
54850;BME280;47660;51.334;12.396;2024-01-25T03:02:06;100720.50;;;18.32;37.55
54850;BME280;47660;51.334;12.396;2024-01-25T03:04:31;100708.94;;;18.71;36.88
54850;BME280;47660;51.334;12.396;2024-01-25T03:06:57;100723.94;;;18.74;36.96
54850;BME280;47660;51.334;12.396;2024-01-25T03:09:22;100718.25;;;17.96;38.18
54850;BME280;47660;51.334;12.396;2024-01-25T03:11:49;100713.44;;;18.31;37.93
54850;BME280;47660;51.334;12.396;2024-01-25T03:14:14;100706.38;;;18.50;37.72
54850;BME280;47660;51.334;12.396;2024-01-25T03:16:39;100716.28;;;18.39;37.69
54850;BME280;47660;51.334;12.396;2024-01-25T03:19:04;100721.31;;;18.13;38.17
54850;BME280;47660;51.334;12.396;2024-01-25T03:21:30;100714.59;;;17.97;38.52
54850;BME280;47660;51.334;12.396;2024-01-25T03:23:55;100718.75;;;18.11;38.67
54850;BME280;47660;51.334;12.396;2024-01-25T03:26:20;100716.38;;;18.28;38.29
54850;BME280;47660;51.334;12.396;2024-01-25T03:28:46;100711.88;;;17.88;38.77
54850;BME280;47660;51.334;12.396;2024-01-25T03:31:11;100712.81;;;18.18;38.37
54850;BME280;47660;51.334;12.396;2024-01-25T03:33:36;100711.38;;;18.04;38.71
54850;BME280;47660;51.334;12.396;2024-01-25T03:36:03;100707.09;;;19.01;37.69
54850;BME280;47660;51.334;12.396;2024-01-25T03:38:28;100714.03;;;18.45;37.98
54850;BME280;47660;51.334;12.396;2024-01-25T03:40:53;100704.69;;;18.78;37.49
54850;BME280;47660;51.334;12.396;2024-01-25T03:43:20;100722.25;;;18.53;37.95
54850;BME280;47660;51.334;12.396;2024-01-25T03:45:45;100725.63;;;18.55;38.10
54850;BME280;47660;51.334;12.396;2024-01-25T03:48:10;100723.59;;;18.18;38.67
54850;BME280;47660;51.334;12.396;2024-01-25T03:50:36;100734.34;;;18.18;38.79
54850;BME280;47660;51.334;12.396;2024-01-25T03:53:01;100739.94;;;17.95;39.26
54850;BME280;47660;51.334;12.396;2024-01-25T03:55:26;100739.72;;;18.18;38.85
54850;BME280;47660;51.334;12.396;2024-01-25T03:57:51;100731.72;;;18.37;38.72
54850;BME280;47660;51.334;12.396;2024-01-25T04:00:17;100737.28;;;18.85;38.07
54850;BME280;47660;51.334;12.396;2024-01-25T04:02:42;100737.53;;;18.52;38.40
54850;BME280;47660;51.334;12.396;2024-01-25T04:05:08;100740.75;;;18.26;38.73
54850;BME280;47660;51.334;12.396;2024-01-25T04:07:33;100745.44;;;18.44;38.65
54850;BME280;47660;51.334;12.396;2024-01-25T04:09:58;100740.13;;;18.03;39.49
54850;BME280;47660;51.334;12.396;2024-01-25T04:12:23;100748.44;;;18.51;38.75
54850;BME280;47660;51.334;12.396;2024-01-25T04:14:50;100758.25;;;18.01;39.46
54850;BME280;47660;51.334;12.396;2024-01-25T04:17:15;100770.09;;;18.39;38.98
54850;BME280;47660;51.334;12.396;2024-01-25T04:19:40;100764.66;;;18.20;39.27
54850;BME280;47660;51.334;12.396;2024-01-25T04:22:05;100762.69;;;18.22;39.05
54850;BME280;47660;51.334;12.396;2024-01-25T04:24:31;100779.34;;;18.06;39.00
54850;BME280;47660;51.334;12.396;2024-01-25T04:26:56;100789.06;;;18.38;38.55
54850;BME280;47660;51.334;12.396;2024-01-25T04:29:21;100792.13;;;18.84;37.66
54850;BME280;47660;51.334;12.396;2024-01-25T04:31:47;100801.50;;;18.29;38.77
54850;BME280;47660;51.334;12.396;2024-01-25T04:34:13;100807.28;;;18.75;38.31
54850;BME280;47660;51.334;12.396;2024-01-25T04:36:39;100818.00;;;18.46;38.25
54850;BME280;47660;51.334;12.396;2024-01-25T04:39:04;100821.22;;;19.00;37.32
54850;BME280;47660;51.334;12.396;2024-01-25T04:41:29;100822.19;;;19.09;37.19
54850;BME280;47660;51.334;12.396;2024-01-25T04:43:55;100832.97;;;19.38;36.59
54850;BME280;47660;51.334;12.396;2024-01-25T04:46:20;100837.13;;;18.62;37.80
54850;BME280;47660;51.334;12.396;2024-01-25T04:48:45;100839.34;;;18.37;38.02
54850;BME280;47660;51.334;12.396;2024-01-25T04:51:18;100839.78;;;19.42;36.91
54850;BME280;47660;51.334;12.396;2024-01-25T04:53:45;100831.88;;;19.11;36.95
54850;BME280;47660;51.334;12.396;2024-01-25T04:56:10;100851.63;;;18.71;37.23
54850;BME280;47660;51.334;12.396;2024-01-25T04:58:35;100853.66;;;18.38;37.81
54850;BME280;47660;51.334;12.396;2024-01-25T05:01:01;100856.19;;;18.90;37.17
54850;BME280;47660;51.334;12.396;2024-01-25T05:03:26;100859.72;;;18.71;37.34
54850;BME280;47660;51.334;12.396;2024-01-25T05:05:51;100864.88;;;19.04;36.58
54850;BME280;47660;51.334;12.396;2024-01-25T05:08:17;100870.56;;;19.10;36.71
54850;BME280;47660;51.334;12.396;2024-01-25T05:10:42;100878.50;;;18.61;37.39
54850;BME280;47660;51.334;12.396;2024-01-25T05:13:08;100879.31;;;18.11;38.81
54850;BME280;47660;51.334;12.396;2024-01-25T05:15:34;100885.63;;;17.25;39.87
54850;BME280;47660;51.334;12.396;2024-01-25T05:17:59;100874.56;;;18.24;38.32
54850;BME280;47660;51.334;12.396;2024-01-25T05:20:25;100873.88;;;18.32;37.91
54850;BME280;47660;51.334;12.396;2024-01-25T05:22:57;100875.50;;;18.14;38.28
54850;BME280;47660;51.334;12.396;2024-01-25T05:25:22;100876.22;;;18.47;37.88
54850;BME280;47660;51.334;12.396;2024-01-25T05:27:47;100872.97;;;17.70;38.90
54850;BME280;47660;51.334;12.396;2024-01-25T05:30:13;100878.22;;;18.54;37.52
54850;BME280;47660;51.334;12.396;2024-01-25T05:32:38;100868.81;;;18.90;36.90
54850;BME280;47660;51.334;12.396;2024-01-25T05:35:04;100874.72;;;18.74;37.17
54850;BME280;47660;51.334;12.396;2024-01-25T05:37:29;100873.88;;;18.73;37.03
54850;BME280;47660;51.334;12.396;2024-01-25T05:39:55;100875.59;;;18.84;36.72
54850;BME280;47660;51.334;12.396;2024-01-25T05:42:20;100891.84;;;19.13;36.19
54850;BME280;47660;51.334;12.396;2024-01-25T05:44:45;100889.19;;;18.82;36.69
54850;BME280;47660;51.334;12.396;2024-01-25T05:47:11;100891.56;;;19.17;35.97
54850;BME280;47660;51.334;12.396;2024-01-25T05:49:36;100896.13;;;19.36;35.37
54850;BME280;47660;51.334;12.396;2024-01-25T05:52:01;100899.66;;;19.17;35.75
54850;BME280;47660;51.334;12.396;2024-01-25T05:54:30;100895.34;;;19.83;35.48
54850;BME280;47660;51.334;12.396;2024-01-25T05:56:55;100894.94;;;19.09;35.57
54850;BME280;47660;51.334;12.396;2024-01-25T05:59:20;100900.34;;;19.09;35.73
54850;BME280;47660;51.334;12.396;2024-01-25T06:01:46;100898.06;;;19.53;35.19
54850;BME280;47660;51.334;12.396;2024-01-25T06:04:11;100893.25;;;19.37;35.27
54850;BME280;47660;51.334;12.396;2024-01-25T06:06:36;100899.34;;;19.00;35.79
54850;BME280;47660;51.334;12.396;2024-01-25T06:09:02;100902.69;;;18.41;36.34
54850;BME280;47660;51.334;12.396;2024-01-25T06:11:27;100906.44;;;19.11;35.81
54850;BME280;47660;51.334;12.396;2024-01-25T06:13:53;100913.03;;;18.87;35.66
54850;BME280;47660;51.334;12.396;2024-01-25T06:16:18;100904.75;;;19.39;35.07
54850;BME280;47660;51.334;12.396;2024-01-25T06:18:43;100913.97;;;19.17;35.42
54850;BME280;47660;51.334;12.396;2024-01-25T06:21:09;100913.56;;;19.41;34.96
54850;BME280;47660;51.334;12.396;2024-01-25T06:23:34;100924.75;;;19.17;35.24
54850;BME280;47660;51.334;12.396;2024-01-25T06:25:59;100914.66;;;19.09;35.18
54850;BME280;47660;51.334;12.396;2024-01-25T06:28:26;100922.63;;;18.70;35.72
54850;BME280;47660;51.334;12.396;2024-01-25T06:30:51;100938.69;;;17.98;36.84
54850;BME280;47660;51.334;12.396;2024-01-25T06:33:16;100942.06;;;18.83;35.88
54850;BME280;47660;51.334;12.396;2024-01-25T06:35:42;100946.06;;;18.89;35.73
54850;BME280;47660;51.334;12.396;2024-01-25T06:38:07;100952.59;;;18.55;35.95
54850;BME280;47660;51.334;12.396;2024-01-25T06:40:33;100957.97;;;18.86;35.73
54850;BME280;47660;51.334;12.396;2024-01-25T06:42:58;100965.56;;;18.71;35.79
54850;BME280;47660;51.334;12.396;2024-01-25T06:45:23;100976.03;;;18.65;35.96
54850;BME280;47660;51.334;12.396;2024-01-25T06:47:48;100980.44;;;18.66;35.94
54850;BME280;47660;51.334;12.396;2024-01-25T06:50:14;100984.28;;;19.14;35.31
54850;BME280;47660;51.334;12.396;2024-01-25T06:52:39;100995.41;;;19.40;34.87
54850;BME280;47660;51.334;12.396;2024-01-25T06:55:04;101005.91;;;19.34;35.04
54850;BME280;47660;51.334;12.396;2024-01-25T06:57:30;101012.22;;;19.13;35.28
54850;BME280;47660;51.334;12.396;2024-01-25T06:59:55;101025.28;;;18.86;35.64
54850;BME280;47660;51.334;12.396;2024-01-25T07:02:20;101027.41;;;19.14;35.19
54850;BME280;47660;51.334;12.396;2024-01-25T07:04:46;101024.47;;;19.27;34.99
54850;BME280;47660;51.334;12.396;2024-01-25T07:07:11;101038.09;;;19.25;35.06
54850;BME280;47660;51.334;12.396;2024-01-25T07:09:36;101031.44;;;18.67;35.87
54850;BME280;47660;51.334;12.396;2024-01-25T07:12:02;101031.81;;;19.15;35.08
54850;BME280;47660;51.334;12.396;2024-01-25T07:14:27;101039.53;;;19.39;34.72
54850;BME280;47660;51.334;12.396;2024-01-25T07:16:52;101038.00;;;19.47;34.75
54850;BME280;47660;51.334;12.396;2024-01-25T07:19:18;101053.19;;;19.48;34.62
54850;BME280;47660;51.334;12.396;2024-01-25T07:21:43;101056.00;;;18.74;35.76
54850;BME280;47660;51.334;12.396;2024-01-25T07:24:11;101044.97;;;19.08;35.41
54850;BME280;47660;51.334;12.396;2024-01-25T07:26:36;101043.84;;;18.80;35.45
54850;BME280;47660;51.334;12.396;2024-01-25T07:29:02;101047.66;;;18.77;35.37
54850;BME280;47660;51.334;12.396;2024-01-25T07:31:28;101048.06;;;18.51;35.76
54850;BME280;47660;51.334;12.396;2024-01-25T07:33:54;101049.78;;;19.05;35.38
54850;BME280;47660;51.334;12.396;2024-01-25T07:36:20;101046.69;;;19.09;35.35
54850;BME280;47660;51.334;12.396;2024-01-25T07:38:45;101047.06;;;18.74;35.59
54850;BME280;47660;51.334;12.396;2024-01-25T07:41:14;101045.34;;;19.25;34.92
54850;BME280;47660;51.334;12.396;2024-01-25T07:43:40;101047.44;;;19.31;35.13
54850;BME280;47660;51.334;12.396;2024-01-25T07:46:06;101053.16;;;18.97;35.34
54850;BME280;47660;51.334;12.396;2024-01-25T07:48:32;101049.72;;;18.43;35.77
54850;BME280;47660;51.334;12.396;2024-01-25T07:50:57;101055.16;;;18.74;35.36
54850;BME280;47660;51.334;12.396;2024-01-25T07:53:22;101055.66;;;18.04;36.49
54850;BME280;47660;51.334;12.396;2024-01-25T07:55:48;101052.72;;;17.95;36.86
54850;BME280;47660;51.334;12.396;2024-01-25T07:58:17;101035.03;;;18.99;36.15
54850;BME280;47660;51.334;12.396;2024-01-25T08:00:42;101045.66;;;18.27;36.70
54850;BME280;47660;51.334;12.396;2024-01-25T08:03:08;101047.72;;;18.87;36.26
54850;BME280;47660;51.334;12.396;2024-01-25T08:05:33;101055.25;;;18.93;36.15
54850;BME280;47660;51.334;12.396;2024-01-25T08:07:59;101058.22;;;19.31;35.51
54850;BME280;47660;51.334;12.396;2024-01-25T08:10:24;101061.09;;;19.29;36.19
54850;BME280;47660;51.334;12.396;2024-01-25T08:12:49;101065.56;;;19.60;36.31
54850;BME280;47660;51.334;12.396;2024-01-25T08:15:15;101056.06;;;19.85;35.88
54850;BME280;47660;51.334;12.396;2024-01-25T08:17:40;101061.97;;;19.50;35.77
54850;BME280;47660;51.334;12.396;2024-01-25T08:20:06;101059.44;;;19.07;36.85
54850;BME280;47660;51.334;12.396;2024-01-25T08:22:32;101070.81;;;18.90;37.10
54850;BME280;47660;51.334;12.396;2024-01-25T08:24:57;101067.22;;;19.41;36.39
54850;BME280;47660;51.334;12.396;2024-01-25T08:27:22;101077.78;;;19.23;36.29
54850;BME280;47660;51.334;12.396;2024-01-25T08:29:48;101081.69;;;19.40;36.02
54850;BME280;47660;51.334;12.396;2024-01-25T08:32:13;101092.78;;;18.85;36.50
54850;BME280;47660;51.334;12.396;2024-01-25T08:34:38;101087.63;;;18.51;37.19
54850;BME280;47660;51.334;12.396;2024-01-25T08:37:04;101092.06;;;19.45;35.86
54850;BME280;47660;51.334;12.396;2024-01-25T08:39:29;101099.56;;;19.41;35.82
54850;BME280;47660;51.334;12.396;2024-01-25T08:41:54;101099.31;;;19.54;35.76
54850;BME280;47660;51.334;12.396;2024-01-25T08:44:21;101102.63;;;19.27;36.13
54850;BME280;47660;51.334;12.396;2024-01-25T08:46:46;101102.75;;;18.94;36.40
54850;BME280;47660;51.334;12.396;2024-01-25T08:49:12;101106.91;;;19.29;35.74
54850;BME280;47660;51.334;12.396;2024-01-25T08:51:38;101116.31;;;20.06;35.63
54850;BME280;47660;51.334;12.396;2024-01-25T08:54:03;101114.88;;;19.41;35.87
54850;BME280;47660;51.334;12.396;2024-01-25T08:56:29;101105.94;;;20.01;35.81
54850;BME280;47660;51.334;12.396;2024-01-25T08:58:54;101103.69;;;19.45;35.97
54850;BME280;47660;51.334;12.396;2024-01-25T09:01:20;101100.00;;;19.47;36.03
54850;BME280;47660;51.334;12.396;2024-01-25T09:03:45;101106.94;;;20.29;34.85
54850;BME280;47660;51.334;12.396;2024-01-25T09:06:10;101113.31;;;20.58;34.46
54850;BME280;47660;51.334;12.396;2024-01-25T09:08:35;101119.72;;;20.27;34.55
54850;BME280;47660;51.334;12.396;2024-01-25T09:11:01;101115.75;;;20.22;34.73
54850;BME280;47660;51.334;12.396;2024-01-25T09:13:26;101118.03;;;20.26;34.94
54850;BME280;47660;51.334;12.396;2024-01-25T09:15:51;101127.69;;;20.29;34.70
54850;BME280;47660;51.334;12.396;2024-01-25T09:18:16;101126.56;;;20.12;34.85
54850;BME280;47660;51.334;12.396;2024-01-25T09:20:42;101111.94;;;20.34;34.36
54850;BME280;47660;51.334;12.396;2024-01-25T09:23:13;101122.22;;;19.80;35.22
54850;BME280;47660;51.334;12.396;2024-01-25T09:25:40;101130.53;;;20.17;34.77
54850;BME280;47660;51.334;12.396;2024-01-25T09:28:06;101130.66;;;20.55;34.01
54850;BME280;47660;51.334;12.396;2024-01-25T09:30:31;101134.50;;;20.53;34.17
54850;BME280;47660;51.334;12.396;2024-01-25T09:32:59;101135.91;;;20.67;33.88
54850;BME280;47660;51.334;12.396;2024-01-25T09:35:25;101135.50;;;20.32;34.10
54850;BME280;47660;51.334;12.396;2024-01-25T09:37:50;101120.97;;;20.82;33.47
54850;BME280;47660;51.334;12.396;2024-01-25T09:40:18;101126.78;;;20.87;33.60
54850;BME280;47660;51.334;12.396;2024-01-25T09:42:46;101126.28;;;20.44;34.10
54850;BME280;47660;51.334;12.396;2024-01-25T09:45:16;101129.16;;;21.10;33.67
54850;BME280;47660;51.334;12.396;2024-01-25T09:47:43;101131.09;;;21.18;33.48
54850;BME280;47660;51.334;12.396;2024-01-25T09:50:08;101134.94;;;20.68;33.49
54850;BME280;47660;51.334;12.396;2024-01-25T09:52:34;101143.03;;;20.58;33.99
54850;BME280;47660;51.334;12.396;2024-01-25T09:55:01;101140.44;;;20.76;33.92
54850;BME280;47660;51.334;12.396;2024-01-25T09:57:28;101140.16;;;21.36;33.25
54850;BME280;47660;51.334;12.396;2024-01-25T09:59:54;101157.56;;;21.24;33.21
54850;BME280;47660;51.334;12.396;2024-01-25T10:02:22;101160.66;;;20.23;34.26
54850;BME280;47660;51.334;12.396;2024-01-25T10:04:49;101156.41;;;21.27;33.48
54850;BME280;47660;51.334;12.396;2024-01-25T10:07:15;101150.84;;;20.51;33.67
54850;BME280;47660;51.334;12.396;2024-01-25T10:09:41;101161.81;;;21.27;33.24
54850;BME280;47660;51.334;12.396;2024-01-25T10:12:10;101161.06;;;21.72;32.66
54850;BME280;47660;51.334;12.396;2024-01-25T10:14:35;101166.06;;;20.42;33.92
54850;BME280;47660;51.334;12.396;2024-01-25T10:17:00;101173.31;;;19.71;34.69
54850;BME280;47660;51.334;12.396;2024-01-25T10:19:26;101164.19;;;20.13;34.00
54850;BME280;47660;51.334;12.396;2024-01-25T10:21:51;101162.94;;;20.67;33.36
54850;BME280;47660;51.334;12.396;2024-01-25T10:24:17;101151.25;;;20.76;33.14
54850;BME280;47660;51.334;12.396;2024-01-25T10:26:42;101168.56;;;21.03;32.75
54850;BME280;47660;51.334;12.396;2024-01-25T10:29:08;101156.97;;;21.20;32.59
54850;BME280;47660;51.334;12.396;2024-01-25T10:31:38;101148.94;;;23.11;30.72
54850;BME280;47660;51.334;12.396;2024-01-25T10:34:05;101150.25;;;23.68;29.75
54850;BME280;47660;51.334;12.396;2024-01-25T10:36:30;101159.19;;;22.73;30.46
54850;BME280;47660;51.334;12.396;2024-01-25T10:38:57;101151.06;;;22.99;30.52
54850;BME280;47660;51.334;12.396;2024-01-25T10:41:23;101170.31;;;21.98;31.74
54850;BME280;47660;51.334;12.396;2024-01-25T10:43:49;101168.50;;;21.60;31.85
54850;BME280;47660;51.334;12.396;2024-01-25T10:46:15;101165.03;;;21.78;31.77
54850;BME280;47660;51.334;12.396;2024-01-25T10:48:41;101163.03;;;21.80;31.87
54850;BME280;47660;51.334;12.396;2024-01-25T10:51:06;101165.06;;;20.83;32.93
54850;BME280;47660;51.334;12.396;2024-01-25T10:53:33;101160.16;;;21.81;32.26
54850;BME280;47660;51.334;12.396;2024-01-25T10:56:00;101167.22;;;21.27;32.94
54850;BME280;47660;51.334;12.396;2024-01-25T10:58:33;101154.16;;;22.06;32.19
54850;BME280;47660;51.334;12.396;2024-01-25T11:01:00;101159.50;;;21.70;31.92
54850;BME280;47660;51.334;12.396;2024-01-25T11:03:29;101156.50;;;24.86;28.91
54850;BME280;47660;51.334;12.396;2024-01-25T11:06:12;101143.78;;;24.29;28.76
54850;BME280;47660;51.334;12.396;2024-01-25T11:08:38;101150.25;;;23.68;29.34
54850;BME280;47660;51.334;12.396;2024-01-25T11:11:08;101156.13;;;23.98;29.17
54850;BME280;47660;51.334;12.396;2024-01-25T11:13:34;101154.13;;;22.52;30.51
54850;BME280;47660;51.334;12.396;2024-01-25T11:16:17;101145.44;;;23.54;29.62
54850;BME280;47660;51.334;12.396;2024-01-25T11:18:50;101141.88;;;24.05;28.90
54850;BME280;47660;51.334;12.396;2024-01-25T11:21:29;101150.78;;;23.37;29.79
54850;BME280;47660;51.334;12.396;2024-01-25T11:24:03;101138.09;;;23.38;29.48
54850;BME280;47660;51.334;12.396;2024-01-25T11:26:29;101138.78;;;22.61;30.39
54850;BME280;47660;51.334;12.396;2024-01-25T11:28:57;101142.81;;;21.74;31.50
54850;BME280;47660;51.334;12.396;2024-01-25T11:31:25;101135.63;;;25.43;27.20
54850;BME280;47660;51.334;12.396;2024-01-25T11:33:57;101127.97;;;24.49;27.99
54850;BME280;47660;51.334;12.396;2024-01-25T11:36:22;101134.13;;;23.75;28.63
54850;BME280;47660;51.334;12.396;2024-01-25T11:38:48;101124.34;;;23.31;28.89
54850;BME280;47660;51.334;12.396;2024-01-25T11:41:14;101114.91;;;24.44;27.31
54850;BME280;47660;51.334;12.396;2024-01-25T11:43:40;101118.41;;;25.11;27.10
54850;BME280;47660;51.334;12.396;2024-01-25T11:46:06;101127.13;;;22.87;29.09
54850;BME280;47660;51.334;12.396;2024-01-25T11:48:32;101138.31;;;22.11;30.04
54850;BME280;47660;51.334;12.396;2024-01-25T11:51:00;101121.91;;;22.49;30.36
54850;BME280;47660;51.334;12.396;2024-01-25T11:53:25;101146.00;;;20.94;31.81
54850;BME280;47660;51.334;12.396;2024-01-25T11:55:51;101151.94;;;20.98;32.08
54850;BME280;47660;51.334;12.396;2024-01-25T11:58:17;101145.16;;;20.64;32.56
54850;BME280;47660;51.334;12.396;2024-01-25T12:00:43;101147.13;;;20.72;32.41
54850;BME280;47660;51.334;12.396;2024-01-25T12:03:09;101141.16;;;20.68;32.85
54850;BME280;47660;51.334;12.396;2024-01-25T12:05:34;101143.44;;;19.94;33.61
54850;BME280;47660;51.334;12.396;2024-01-25T12:08:00;101142.38;;;19.35;34.34
54850;BME280;47660;51.334;12.396;2024-01-25T12:10:25;101147.28;;;20.11;33.63
54850;BME280;47660;51.334;12.396;2024-01-25T12:12:51;101141.75;;;21.29;32.05
54850;BME280;47660;51.334;12.396;2024-01-25T12:15:16;101128.88;;;22.15;30.77
54850;BME280;47660;51.334;12.396;2024-01-25T12:17:41;101133.53;;;22.59;29.83
54850;BME280;47660;51.334;12.396;2024-01-25T12:20:07;101146.38;;;22.39;30.10
54850;BME280;47660;51.334;12.396;2024-01-25T12:22:36;101141.00;;;21.93;30.83
54850;BME280;47660;51.334;12.396;2024-01-25T12:25:02;101156.03;;;21.49;31.46
54850;BME280;47660;51.334;12.396;2024-01-25T12:27:28;101144.75;;;21.54;31.96
54850;BME280;47660;51.334;12.396;2024-01-25T12:29:56;101158.22;;;20.29;32.61
54850;BME280;47660;51.334;12.396;2024-01-25T12:32:21;101159.97;;;20.40;32.87
54850;BME280;47660;51.334;12.396;2024-01-25T12:34:57;101162.34;;;21.40;31.74